sensor_id;sensor_type;location;lat;lon;timestamp;temperature;humidity
37460;DHT22;23318;50.966;5.284;2023-03-23T00:01:13;13.10;99.90
37460;DHT22;23318;50.966;5.284;2023-03-23T00:03:40;13.20;99.90
37460;DHT22;23318;50.966;5.284;2023-03-23T00:06:07;13.10;99.90
37460;DHT22;23318;50.966;5.284;2023-03-23T00:08:38;13.10;99.90
37460;DHT22;23318;50.966;5.284;2023-03-23T00:11:11;13.10;99.90
37460;DHT22;23318;50.966;5.284;2023-03-23T00:13:41;13.10;99.90
37460;DHT22;23318;50.966;5.284;2023-03-23T00:16:07;13.10;99.90
37460;DHT22;23318;50.966;5.284;2023-03-23T00:18:47;13.20;99.90
37460;DHT22;23318;50.966;5.284;2023-03-23T00:21:14;13.10;99.90
37460;DHT22;23318;50.966;5.284;2023-03-23T00:23:40;13.20;99.90
37460;DHT22;23318;50.966;5.284;2023-03-23T00:26:06;13.10;99.90
37460;DHT22;23318;50.966;5.284;2023-03-23T00:28:32;13.20;99.90
37460;DHT22;23318;50.966;5.284;2023-03-23T00:31:04;13.20;99.90
37460;DHT22;23318;50.966;5.284;2023-03-23T00:33:33;13.20;99.90
37460;DHT22;23318;50.966;5.284;2023-03-23T00:36:11;13.20;99.90
37460;DHT22;23318;50.966;5.284;2023-03-23T00:38:38;13.30;99.90
37460;DHT22;23318;50.966;5.284;2023-03-23T00:41:05;13.20;99.90
37460;DHT22;23318;50.966;5.284;2023-03-23T00:43:32;13.20;99.90
37460;DHT22;23318;50.966;5.284;2023-03-23T00:46:02;13.20;99.90
37460;DHT22;23318;50.966;5.284;2023-03-23T00:48:34;13.30;99.90
37460;DHT22;23318;50.966;5.284;2023-03-23T00:51:01;13.30;99.90
37460;DHT22;23318;50.966;5.284;2023-03-23T00:53:32;13.20;99.90
37460;DHT22;23318;50.966;5.284;2023-03-23T00:55:58;13.30;99.90
37460;DHT22;23318;50.966;5.284;2023-03-23T00:58:24;13.20;99.90
37460;DHT22;23318;50.966;5.284;2023-03-23T01:00:50;13.30;99.90
37460;DHT22;23318;50.966;5.284;2023-03-23T01:03:16;13.30;99.90
37460;DHT22;23318;50.966;5.284;2023-03-23T01:05:44;13.20;99.90
37460;DHT22;23318;50.966;5.284;2023-03-23T01:08:13;13.10;99.90
37460;DHT22;23318;50.966;5.284;2023-03-23T01:10:39;13.20;99.90
37460;DHT22;23318;50.966;5.284;2023-03-23T01:13:05;13.10;99.90
37460;DHT22;23318;50.966;5.284;2023-03-23T01:15:31;13.10;99.90
37460;DHT22;23318;50.966;5.284;2023-03-23T01:17:57;13.10;99.90
37460;DHT22;23318;50.966;5.284;2023-03-23T01:20:23;13.00;99.90
37460;DHT22;23318;50.966;5.284;2023-03-23T01:22:49;13.10;99.90
37460;DHT22;23318;50.966;5.284;2023-03-23T01:25:15;13.10;99.90
37460;DHT22;23318;50.966;5.284;2023-03-23T01:27:41;13.00;99.90
37460;DHT22;23318;50.966;5.284;2023-03-23T01:30:10;13.10;99.90
37460;DHT22;23318;50.966;5.284;2023-03-23T01:32:36;13.00;99.90
37460;DHT22;23318;50.966;5.284;2023-03-23T01:35:02;13.10;99.90
37460;DHT22;23318;50.966;5.284;2023-03-23T01:37:28;13.00;99.90
37460;DHT22;23318;50.966;5.284;2023-03-23T01:39:55;13.10;99.90
37460;DHT22;23318;50.966;5.284;2023-03-23T01:42:39;13.00;99.90
37460;DHT22;23318;50.966;5.284;2023-03-23T01:45:22;13.00;99.90
37460;DHT22;23318;50.966;5.284;2023-03-23T01:48:05;13.00;99.90
37460;DHT22;23318;50.966;5.284;2023-03-23T01:50:37;13.00;99.90
37460;DHT22;23318;50.966;5.284;2023-03-23T01:53:05;12.90;99.90
37460;DHT22;23318;50.966;5.284;2023-03-23T01:55:34;12.90;99.90
37460;DHT22;23318;50.966;5.284;2023-03-23T01:58:02;13.00;99.90
37460;DHT22;23318;50.966;5.284;2023-03-23T02:00:29;13.00;99.90
37460;DHT22;23318;50.966;5.284;2023-03-23T02:02:55;12.90;99.90
37460;DHT22;23318;50.966;5.284;2023-03-23T02:05:31;13.00;99.90
37460;DHT22;23318;50.966;5.284;2023-03-23T02:07:59;13.00;99.90
37460;DHT22;23318;50.966;5.284;2023-03-23T02:10:29;12.90;99.90
37460;DHT22;23318;50.966;5.284;2023-03-23T02:12:55;12.90;99.90
37460;DHT22;23318;50.966;5.284;2023-03-23T02:15:21;12.90;99.90
37460;DHT22;23318;50.966;5.284;2023-03-23T02:26:53;12.90;99.90
37460;DHT22;23318;50.966;5.284;2023-03-23T02:34:41;12.90;99.90
37460;DHT22;23318;50.966;5.284;2023-03-23T02:37:14;12.90;99.90
37460;DHT22;23318;50.966;5.284;2023-03-23T02:39:48;12.90;99.90
37460;DHT22;23318;50.966;5.284;2023-03-23T02:42:23;12.90;99.90
37460;DHT22;23318;50.966;5.284;2023-03-23T02:44:52;12.90;99.90
37460;DHT22;23318;50.966;5.284;2023-03-23T02:47:25;12.90;99.90
37460;DHT22;23318;50.966;5.284;2023-03-23T02:49:54;12.90;99.90
37460;DHT22;23318;50.966;5.284;2023-03-23T02:52:27;12.90;99.90
37460;DHT22;23318;50.966;5.284;2023-03-23T02:54:56;12.90;99.90
37460;DHT22;23318;50.966;5.284;2023-03-23T02:57:24;13.00;99.90
37460;DHT22;23318;50.966;5.284;2023-03-23T02:59:51;13.00;99.90
37460;DHT22;23318;50.966;5.284;2023-03-23T03:02:47;12.90;99.90
37460;DHT22;23318;50.966;5.284;2023-03-23T03:13:34;13.00;99.90
37460;DHT22;23318;50.966;5.284;2023-03-23T03:18:45;13.00;99.90
37460;DHT22;23318;50.966;5.284;2023-03-23T03:21:14;13.00;99.90
37460;DHT22;23318;50.966;5.284;2023-03-23T03:23:43;13.00;99.90
37460;DHT22;23318;50.966;5.284;2023-03-23T03:26:12;13.10;99.90
37460;DHT22;23318;50.966;5.284;2023-03-23T03:28:43;13.00;99.90
37460;DHT22;23318;50.966;5.284;2023-03-23T03:31:15;13.00;99.90
37460;DHT22;23318;50.966;5.284;2023-03-23T03:33:41;13.00;99.90
37460;DHT22;23318;50.966;5.284;2023-03-23T03:36:15;13.00;99.90
37460;DHT22;23318;50.966;5.284;2023-03-23T03:38:44;13.00;99.90
37460;DHT22;23318;50.966;5.284;2023-03-23T03:41:09;13.00;99.90
37460;DHT22;23318;50.966;5.284;2023-03-23T03:43:35;13.00;99.90
37460;DHT22;23318;50.966;5.284;2023-03-23T03:46:02;12.90;99.90
37460;DHT22;23318;50.966;5.284;2023-03-23T03:48:27;12.90;99.90
37460;DHT22;23318;50.966;5.284;2023-03-23T03:50:53;12.90;99.90
37460;DHT22;23318;50.966;5.284;2023-03-23T03:53:22;12.90;99.90
37460;DHT22;23318;50.966;5.284;2023-03-23T03:55:48;12.80;99.90
37460;DHT22;23318;50.966;5.284;2023-03-23T03:58:15;12.90;99.90
37460;DHT22;23318;50.966;5.284;2023-03-23T04:00:41;12.80;99.90
37460;DHT22;23318;50.966;5.284;2023-03-23T04:03:07;12.90;99.90
37460;DHT22;23318;50.966;5.284;2023-03-23T04:05:34;12.90;99.90
37460;DHT22;23318;50.966;5.284;2023-03-23T04:08:02;12.80;99.90
37460;DHT22;23318;50.966;5.284;2023-03-23T04:10:30;12.80;99.90
37460;DHT22;23318;50.966;5.284;2023-03-23T04:12:57;12.80;99.90
37460;DHT22;23318;50.966;5.284;2023-03-23T04:15:23;12.80;99.90
37460;DHT22;23318;50.966;5.284;2023-03-23T04:17:49;12.80;99.90
37460;DHT22;23318;50.966;5.284;2023-03-23T04:20:15;12.80;99.90
37460;DHT22;23318;50.966;5.284;2023-03-23T04:22:44;12.80;99.90
37460;DHT22;23318;50.966;5.284;2023-03-23T04:25:12;12.90;99.90
37460;DHT22;23318;50.966;5.284;2023-03-23T04:27:39;12.80;99.90
37460;DHT22;23318;50.966;5.284;2023-03-23T04:30:09;12.80;99.90
37460;DHT22;23318;50.966;5.284;2023-03-23T04:32:36;12.80;99.90
37460;DHT22;23318;50.966;5.284;2023-03-23T04:35:11;12.80;99.90
37460;DHT22;23318;50.966;5.284;2023-03-23T04:37:38;12.90;99.90
37460;DHT22;23318;50.966;5.284;2023-03-23T04:40:05;12.80;99.90
37460;DHT22;23318;50.966;5.284;2023-03-23T04:42:37;12.80;99.90
37460;DHT22;23318;50.966;5.284;2023-03-23T04:45:04;12.80;99.90
37460;DHT22;23318;50.966;5.284;2023-03-23T04:47:33;12.70;99.90
37460;DHT22;23318;50.966;5.284;2023-03-23T04:49:59;12.70;99.90
37460;DHT22;23318;50.966;5.284;2023-03-23T04:52:27;12.70;99.90
37460;DHT22;23318;50.966;5.284;2023-03-23T04:54:54;12.80;99.90
37460;DHT22;23318;50.966;5.284;2023-03-23T04:57:22;12.70;99.90
37460;DHT22;23318;50.966;5.284;2023-03-23T04:59:48;12.70;99.90
37460;DHT22;23318;50.966;5.284;2023-03-23T05:02:14;12.70;99.90
37460;DHT22;23318;50.966;5.284;2023-03-23T05:04:40;12.70;99.90
37460;DHT22;23318;50.966;5.284;2023-03-23T05:07:07;12.70;99.90
37460;DHT22;23318;50.966;5.284;2023-03-23T05:09:34;12.60;99.90
37460;DHT22;23318;50.966;5.284;2023-03-23T05:12:08;12.60;99.90
37460;DHT22;23318;50.966;5.284;2023-03-23T05:14:34;12.70;99.90
37460;DHT22;23318;50.966;5.284;2023-03-23T05:17:00;12.60;99.90
37460;DHT22;23318;50.966;5.284;2023-03-23T05:19:26;12.50;99.90
37460;DHT22;23318;50.966;5.284;2023-03-23T05:21:54;12.50;99.90
37460;DHT22;23318;50.966;5.284;2023-03-23T05:24:22;12.60;99.90
37460;DHT22;23318;50.966;5.284;2023-03-23T05:26:47;12.60;99.90
37460;DHT22;23318;50.966;5.284;2023-03-23T05:29:14;12.60;99.90
37460;DHT22;23318;50.966;5.284;2023-03-23T05:31:41;12.60;99.90
37460;DHT22;23318;50.966;5.284;2023-03-23T05:34:06;12.60;99.90
37460;DHT22;23318;50.966;5.284;2023-03-23T05:36:32;12.60;99.90
37460;DHT22;23318;50.966;5.284;2023-03-23T05:38:58;12.60;99.90
37460;DHT22;23318;50.966;5.284;2023-03-23T05:41:25;12.60;99.90
37460;DHT22;23318;50.966;5.284;2023-03-23T05:43:51;12.60;99.90
37460;DHT22;23318;50.966;5.284;2023-03-23T05:46:17;12.60;99.90
37460;DHT22;23318;50.966;5.284;2023-03-23T05:48:43;12.50;99.90
37460;DHT22;23318;50.966;5.284;2023-03-23T05:51:09;12.50;99.90
37460;DHT22;23318;50.966;5.284;2023-03-23T05:53:35;12.50;99.90
37460;DHT22;23318;50.966;5.284;2023-03-23T05:56:01;12.50;99.90
37460;DHT22;23318;50.966;5.284;2023-03-23T05:58:27;12.50;99.90
37460;DHT22;23318;50.966;5.284;2023-03-23T06:00:53;12.50;99.90
37460;DHT22;23318;50.966;5.284;2023-03-23T06:03:19;12.60;99.90
37460;DHT22;23318;50.966;5.284;2023-03-23T06:05:45;12.40;99.90
37460;DHT22;23318;50.966;5.284;2023-03-23T06:08:11;12.40;99.90
37460;DHT22;23318;50.966;5.284;2023-03-23T06:10:37;12.50;99.90
37460;DHT22;23318;50.966;5.284;2023-03-23T06:13:04;12.40;99.90
37460;DHT22;23318;50.966;5.284;2023-03-23T06:15:31;12.40;99.90
37460;DHT22;23318;50.966;5.284;2023-03-23T06:18:01;12.40;99.90
37460;DHT22;23318;50.966;5.284;2023-03-23T06:20:28;12.40;99.90
37460;DHT22;23318;50.966;5.284;2023-03-23T06:22:54;12.40;99.90
37460;DHT22;23318;50.966;5.284;2023-03-23T06:25:21;12.50;99.90
37460;DHT22;23318;50.966;5.284;2023-03-23T06:27:48;12.50;99.90
37460;DHT22;23318;50.966;5.284;2023-03-23T06:30:14;12.50;99.90
37460;DHT22;23318;50.966;5.284;2023-03-23T06:32:41;12.50;99.90
37460;DHT22;23318;50.966;5.284;2023-03-23T06:35:09;12.50;99.90
37460;DHT22;23318;50.966;5.284;2023-03-23T06:37:36;12.50;99.90
37460;DHT22;23318;50.966;5.284;2023-03-23T06:40:02;12.60;99.90
37460;DHT22;23318;50.966;5.284;2023-03-23T06:42:32;12.60;99.90
37460;DHT22;23318;50.966;5.284;2023-03-23T06:44:58;12.60;99.90
37460;DHT22;23318;50.966;5.284;2023-03-23T06:47:26;12.70;99.90
37460;DHT22;23318;50.966;5.284;2023-03-23T06:49:55;12.70;99.90
37460;DHT22;23318;50.966;5.284;2023-03-23T06:52:22;12.60;99.90
37460;DHT22;23318;50.966;5.284;2023-03-23T06:54:49;12.60;99.90
37460;DHT22;23318;50.966;5.284;2023-03-23T06:57:15;12.60;99.90
37460;DHT22;23318;50.966;5.284;2023-03-23T06:59:41;12.70;99.90
37460;DHT22;23318;50.966;5.284;2023-03-23T07:02:09;12.80;99.90
37460;DHT22;23318;50.966;5.284;2023-03-23T07:04:37;12.80;99.90
37460;DHT22;23318;50.966;5.284;2023-03-23T07:07:04;12.80;99.90
37460;DHT22;23318;50.966;5.284;2023-03-23T07:09:30;12.80;99.90
37460;DHT22;23318;50.966;5.284;2023-03-23T07:11:55;12.80;99.90
37460;DHT22;23318;50.966;5.284;2023-03-23T07:14:21;12.80;99.90
37460;DHT22;23318;50.966;5.284;2023-03-23T07:16:47;12.80;99.90
37460;DHT22;23318;50.966;5.284;2023-03-23T07:19:13;12.80;99.90
37460;DHT22;23318;50.966;5.284;2023-03-23T07:21:39;12.80;99.90
37460;DHT22;23318;50.966;5.284;2023-03-23T07:24:05;12.90;99.90
37460;DHT22;23318;50.966;5.284;2023-03-23T07:26:32;12.90;99.90
37460;DHT22;23318;50.966;5.284;2023-03-23T07:28:57;12.90;99.90
37460;DHT22;23318;50.966;5.284;2023-03-23T07:31:23;13.00;99.90
37460;DHT22;23318;50.966;5.284;2023-03-23T07:33:49;13.10;99.90
37460;DHT22;23318;50.966;5.284;2023-03-23T07:36:15;13.10;99.90
37460;DHT22;23318;50.966;5.284;2023-03-23T07:38:40;13.10;99.90
37460;DHT22;23318;50.966;5.284;2023-03-23T07:41:06;13.10;99.90
37460;DHT22;23318;50.966;5.284;2023-03-23T07:43:32;13.00;99.90
37460;DHT22;23318;50.966;5.284;2023-03-23T07:45:58;13.10;99.90
37460;DHT22;23318;50.966;5.284;2023-03-23T07:48:24;13.00;99.90
37460;DHT22;23318;50.966;5.284;2023-03-23T07:50:49;13.10;99.90
37460;DHT22;23318;50.966;5.284;2023-03-23T07:53:15;13.00;99.90
37460;DHT22;23318;50.966;5.284;2023-03-23T07:55:41;12.80;99.90
37460;DHT22;23318;50.966;5.284;2023-03-23T07:58:07;12.80;99.90
37460;DHT22;23318;50.966;5.284;2023-03-23T08:00:34;12.60;99.90
37460;DHT22;23318;50.966;5.284;2023-03-23T08:03:00;12.60;99.90
37460;DHT22;23318;50.966;5.284;2023-03-23T08:05:28;12.60;99.90
37460;DHT22;23318;50.966;5.284;2023-03-23T08:07:54;12.60;99.90
37460;DHT22;23318;50.966;5.284;2023-03-23T08:10:21;12.50;99.90
37460;DHT22;23318;50.966;5.284;2023-03-23T08:12:52;12.60;99.90
37460;DHT22;23318;50.966;5.284;2023-03-23T08:15:19;12.70;99.90
37460;DHT22;23318;50.966;5.284;2023-03-23T08:17:47;12.80;99.90
37460;DHT22;23318;50.966;5.284;2023-03-23T08:20:13;12.80;99.90
37460;DHT22;23318;50.966;5.284;2023-03-23T08:22:41;12.70;99.90
37460;DHT22;23318;50.966;5.284;2023-03-23T08:25:10;12.00;99.90
37460;DHT22;23318;50.966;5.284;2023-03-23T08:27:36;11.50;99.90
37460;DHT22;23318;50.966;5.284;2023-03-23T08:30:03;11.10;99.90
37460;DHT22;23318;50.966;5.284;2023-03-23T08:32:30;10.60;99.90
37460;DHT22;23318;50.966;5.284;2023-03-23T08:34:56;10.40;99.90
37460;DHT22;23318;50.966;5.284;2023-03-23T08:37:22;10.20;99.90
37460;DHT22;23318;50.966;5.284;2023-03-23T08:39:54;10.00;99.90
37460;DHT22;23318;50.966;5.284;2023-03-23T08:42:20;9.90;99.90
37460;DHT22;23318;50.966;5.284;2023-03-23T08:44:46;10.00;99.90
37460;DHT22;23318;50.966;5.284;2023-03-23T08:47:12;10.10;99.90
37460;DHT22;23318;50.966;5.284;2023-03-23T08:49:37;10.00;99.90
37460;DHT22;23318;50.966;5.284;2023-03-23T08:52:03;9.80;99.90
37460;DHT22;23318;50.966;5.284;2023-03-23T08:54:29;9.90;99.90
37460;DHT22;23318;50.966;5.284;2023-03-23T08:56:59;10.00;99.90
37460;DHT22;23318;50.966;5.284;2023-03-23T08:59:25;10.00;99.90
37460;DHT22;23318;50.966;5.284;2023-03-23T09:01:51;9.90;99.90
37460;DHT22;23318;50.966;5.284;2023-03-23T09:04:17;9.90;99.90
37460;DHT22;23318;50.966;5.284;2023-03-23T09:06:43;9.90;99.90
37460;DHT22;23318;50.966;5.284;2023-03-23T09:09:11;9.80;99.90
37460;DHT22;23318;50.966;5.284;2023-03-23T09:11:37;9.80;99.90
37460;DHT22;23318;50.966;5.284;2023-03-23T09:14:05;9.80;99.90
37460;DHT22;23318;50.966;5.284;2023-03-23T09:16:32;10.00;99.90
37460;DHT22;23318;50.966;5.284;2023-03-23T09:18:58;10.00;99.90
37460;DHT22;23318;50.966;5.284;2023-03-23T09:21:25;10.10;99.90
37460;DHT22;23318;50.966;5.284;2023-03-23T09:23:52;10.30;99.90
37460;DHT22;23318;50.966;5.284;2023-03-23T09:26:18;10.50;99.90
37460;DHT22;23318;50.966;5.284;2023-03-23T09:28:44;10.30;99.90
37460;DHT22;23318;50.966;5.284;2023-03-23T09:31:11;10.60;99.90
37460;DHT22;23318;50.966;5.284;2023-03-23T09:33:37;10.70;99.90
37460;DHT22;23318;50.966;5.284;2023-03-23T09:36:04;10.80;99.90
37460;DHT22;23318;50.966;5.284;2023-03-23T09:38:31;10.80;99.90
37460;DHT22;23318;50.966;5.284;2023-03-23T09:44:18;10.80;99.90
37460;DHT22;23318;50.966;5.284;2023-03-23T09:49:34;10.70;99.90
37460;DHT22;23318;50.966;5.284;2023-03-23T09:52:14;10.60;99.90
37460;DHT22;23318;50.966;5.284;2023-03-23T09:54:41;10.70;99.90
37460;DHT22;23318;50.966;5.284;2023-03-23T09:57:35;10.60;99.90
37460;DHT22;23318;50.966;5.284;2023-03-23T10:03:10;10.70;99.90
37460;DHT22;23318;50.966;5.284;2023-03-23T10:05:45;10.80;99.90
37460;DHT22;23318;50.966;5.284;2023-03-23T10:08:19;10.90;99.90
37460;DHT22;23318;50.966;5.284;2023-03-23T10:15:57;10.50;99.90
37460;DHT22;23318;50.966;5.284;2023-03-23T10:20:59;10.30;99.90
37460;DHT22;23318;50.966;5.284;2023-03-23T10:23:50;10.40;99.90
37460;DHT22;23318;50.966;5.284;2023-03-23T10:28:51;10.50;99.90
37460;DHT22;23318;50.966;5.284;2023-03-23T10:31:24;10.80;99.90
37460;DHT22;23318;50.966;5.284;2023-03-23T10:33:54;10.90;99.90
37460;DHT22;23318;50.966;5.284;2023-03-23T10:36:35;11.00;99.90
37460;DHT22;23318;50.966;5.284;2023-03-23T10:39:06;11.20;99.90
37460;DHT22;23318;50.966;5.284;2023-03-23T10:41:35;11.50;99.90
37460;DHT22;23318;50.966;5.284;2023-03-23T10:44:01;11.70;99.90
37460;DHT22;23318;50.966;5.284;2023-03-23T10:49:01;11.80;99.90
37460;DHT22;23318;50.966;5.284;2023-03-23T10:51:36;12.00;99.90
37460;DHT22;23318;50.966;5.284;2023-03-23T10:54:03;12.20;99.90
37460;DHT22;23318;50.966;5.284;2023-03-23T10:56:42;12.20;99.90
37460;DHT22;23318;50.966;5.284;2023-03-23T10:59:30;12.00;99.90
37460;DHT22;23318;50.966;5.284;2023-03-23T11:02:02;11.90;99.90
37460;DHT22;23318;50.966;5.284;2023-03-23T11:04:31;11.80;99.90
37460;DHT22;23318;50.966;5.284;2023-03-23T11:07:00;11.90;99.90
37460;DHT22;23318;50.966;5.284;2023-03-23T11:09:50;11.70;99.90
37460;DHT22;23318;50.966;5.284;2023-03-23T11:12:18;11.80;99.90
37460;DHT22;23318;50.966;5.284;2023-03-23T11:14:44;11.70;99.90
37460;DHT22;23318;50.966;5.284;2023-03-23T11:17:25;11.80;99.90
37460;DHT22;23318;50.966;5.284;2023-03-23T11:19:52;12.00;99.90
37460;DHT22;23318;50.966;5.284;2023-03-23T11:24:47;11.90;99.90
37460;DHT22;23318;50.966;5.284;2023-03-23T11:27:14;11.80;99.90
37460;DHT22;23318;50.966;5.284;2023-03-23T11:29:53;12.00;99.90
37460;DHT22;23318;50.966;5.284;2023-03-23T11:32:24;12.20;99.90
37460;DHT22;23318;50.966;5.284;2023-03-23T11:34:54;12.40;99.90
37460;DHT22;23318;50.966;5.284;2023-03-23T11:37:32;12.40;99.90
37460;DHT22;23318;50.966;5.284;2023-03-23T11:40:14;12.70;99.90
37460;DHT22;23318;50.966;5.284;2023-03-23T11:42:49;12.90;99.90
37460;DHT22;23318;50.966;5.284;2023-03-23T11:50:45;13.00;99.90
37460;DHT22;23318;50.966;5.284;2023-03-23T11:53:27;12.90;99.90
37460;DHT22;23318;50.966;5.284;2023-03-23T11:56:11;13.00;99.90
37460;DHT22;23318;50.966;5.284;2023-03-23T11:58:39;13.30;99.90
37460;DHT22;23318;50.966;5.284;2023-03-23T12:01:43;13.60;99.90
37460;DHT22;23318;50.966;5.284;2023-03-23T12:04:25;13.70;99.90
37460;DHT22;23318;50.966;5.284;2023-03-23T12:21:08;14.70;99.90
37460;DHT22;23318;50.966;5.284;2023-03-23T12:23:50;14.50;99.90
37460;DHT22;23318;50.966;5.284;2023-03-23T12:26:29;14.60;99.90
37460;DHT22;23318;50.966;5.284;2023-03-23T12:29:20;14.50;99.90
37460;DHT22;23318;50.966;5.284;2023-03-23T12:32:19;14.80;99.90
37460;DHT22;23318;50.966;5.284;2023-03-23T12:34:50;14.60;99.90
37460;DHT22;23318;50.966;5.284;2023-03-23T12:37:48;14.60;99.90
37460;DHT22;23318;50.966;5.284;2023-03-23T12:43:43;14.40;99.90
37460;DHT22;23318;50.966;5.284;2023-03-23T12:49:17;13.40;99.90
37460;DHT22;23318;50.966;5.284;2023-03-23T12:57:36;13.70;99.90
37460;DHT22;23318;50.966;5.284;2023-03-23T13:00:33;15.00;99.90
37460;DHT22;23318;50.966;5.284;2023-03-23T13:06:15;16.10;99.90
37460;DHT22;23318;50.966;5.284;2023-03-23T13:08:49;15.80;99.90
37460;DHT22;23318;50.966;5.284;2023-03-23T13:11:22;15.40;99.90
37460;DHT22;23318;50.966;5.284;2023-03-23T13:13:54;15.20;99.90
37460;DHT22;23318;50.966;5.284;2023-03-23T13:24:24;14.80;99.90
37460;DHT22;23318;50.966;5.284;2023-03-23T13:26:51;14.50;99.90
37460;DHT22;23318;50.966;5.284;2023-03-23T13:29:19;14.40;99.90
37460;DHT22;23318;50.966;5.284;2023-03-23T13:31:46;14.20;99.90
37460;DHT22;23318;50.966;5.284;2023-03-23T13:34:25;14.10;99.90
37460;DHT22;23318;50.966;5.284;2023-03-23T13:39:24;13.60;99.90
37460;DHT22;23318;50.966;5.284;2023-03-23T13:44:56;13.40;99.90
37460;DHT22;23318;50.966;5.284;2023-03-23T13:58:08;16.70;99.90
37460;DHT22;23318;50.966;5.284;2023-03-23T14:00:47;18.00;99.90
37460;DHT22;23318;50.966;5.284;2023-03-23T14:03:25;18.00;99.90
37460;DHT22;23318;50.966;5.284;2023-03-23T14:13:35;19.00;99.90
37460;DHT22;23318;50.966;5.284;2023-03-23T14:16:05;19.20;99.90
37460;DHT22;23318;50.966;5.284;2023-03-23T14:18:37;19.20;99.90
37460;DHT22;23318;50.966;5.284;2023-03-23T14:21:04;19.50;99.90
37460;DHT22;23318;50.966;5.284;2023-03-23T14:23:32;18.90;99.90
37460;DHT22;23318;50.966;5.284;2023-03-23T14:26:01;17.80;99.90
37460;DHT22;23318;50.966;5.284;2023-03-23T14:28:39;16.70;99.90
37460;DHT22;23318;50.966;5.284;2023-03-23T14:31:32;16.20;99.90
37460;DHT22;23318;50.966;5.284;2023-03-23T14:34:10;16.40;99.90
37460;DHT22;23318;50.966;5.284;2023-03-23T14:36:38;16.00;99.90
37460;DHT22;23318;50.966;5.284;2023-03-23T14:42:00;15.70;99.90
37460;DHT22;23318;50.966;5.284;2023-03-23T14:44:32;15.70;99.90
37460;DHT22;23318;50.966;5.284;2023-03-23T14:47:09;15.50;99.90
37460;DHT22;23318;50.966;5.284;2023-03-23T14:49:40;15.40;99.90
37460;DHT22;23318;50.966;5.284;2023-03-23T14:52:13;15.70;99.90
37460;DHT22;23318;50.966;5.284;2023-03-23T14:54:39;15.50;99.90
37460;DHT22;23318;50.966;5.284;2023-03-23T14:57:17;15.80;99.90
37460;DHT22;23318;50.966;5.284;2023-03-23T14:59:44;15.40;99.90
37460;DHT22;23318;50.966;5.284;2023-03-23T15:02:34;15.20;99.90
37460;DHT22;23318;50.966;5.284;2023-03-23T15:05:05;15.10;99.90
37460;DHT22;23318;50.966;5.284;2023-03-23T15:07:36;15.20;99.90
37460;DHT22;23318;50.966;5.284;2023-03-23T15:10:06;15.10;99.90
37460;DHT22;23318;50.966;5.284;2023-03-23T15:12:33;14.90;99.90
37460;DHT22;23318;50.966;5.284;2023-03-23T15:15:03;14.80;99.90
37460;DHT22;23318;50.966;5.284;2023-03-23T15:17:34;14.90;99.90
37460;DHT22;23318;50.966;5.284;2023-03-23T15:20:27;15.00;99.90
37460;DHT22;23318;50.966;5.284;2023-03-23T15:22:53;15.10;99.90
37460;DHT22;23318;50.966;5.284;2023-03-23T15:25:28;15.00;99.90
37460;DHT22;23318;50.966;5.284;2023-03-23T15:27:55;14.70;99.90
37460;DHT22;23318;50.966;5.284;2023-03-23T15:32:55;14.80;99.90
37460;DHT22;23318;50.966;5.284;2023-03-23T15:35:25;14.60;99.90
37460;DHT22;23318;50.966;5.284;2023-03-23T15:38:00;14.30;99.90
37460;DHT22;23318;50.966;5.284;2023-03-23T15:40:27;14.30;99.90
37460;DHT22;23318;50.966;5.284;2023-03-23T15:43:20;14.70;99.90
37460;DHT22;23318;50.966;5.284;2023-03-23T15:46:02;14.80;99.90
37460;DHT22;23318;50.966;5.284;2023-03-23T15:48:31;14.60;99.90
37460;DHT22;23318;50.966;5.284;2023-03-23T15:50:57;14.60;99.90
37460;DHT22;23318;50.966;5.284;2023-03-23T15:53:36;14.80;99.90
37460;DHT22;23318;50.966;5.284;2023-03-23T15:56:08;15.20;99.90
37460;DHT22;23318;50.966;5.284;2023-03-23T15:58:34;16.10;99.90
37460;DHT22;23318;50.966;5.284;2023-03-23T16:01:06;17.00;99.90
37460;DHT22;23318;50.966;5.284;2023-03-23T16:03:39;17.30;99.90
37460;DHT22;23318;50.966;5.284;2023-03-23T16:06:13;17.00;99.90
37460;DHT22;23318;50.966;5.284;2023-03-23T16:08:39;16.80;99.90
37460;DHT22;23318;50.966;5.284;2023-03-23T16:11:08;16.80;99.90
37460;DHT22;23318;50.966;5.284;2023-03-23T16:13:34;16.90;99.90
37460;DHT22;23318;50.966;5.284;2023-03-23T16:16:00;17.10;99.90
37460;DHT22;23318;50.966;5.284;2023-03-23T16:18:25;16.50;99.90
37460;DHT22;23318;50.966;5.284;2023-03-23T16:20:51;16.20;99.90
37460;DHT22;23318;50.966;5.284;2023-03-23T16:23:17;15.90;99.90
37460;DHT22;23318;50.966;5.284;2023-03-23T16:25:42;15.70;99.90
37460;DHT22;23318;50.966;5.284;2023-03-23T16:28:12;15.50;99.90
37460;DHT22;23318;50.966;5.284;2023-03-23T16:30:39;15.60;99.90
37460;DHT22;23318;50.966;5.284;2023-03-23T16:33:05;15.40;99.90
37460;DHT22;23318;50.966;5.284;2023-03-23T16:35:31;15.40;99.90
37460;DHT22;23318;50.966;5.284;2023-03-23T16:37:57;15.30;99.90
37460;DHT22;23318;50.966;5.284;2023-03-23T16:40:23;15.30;99.90
37460;DHT22;23318;50.966;5.284;2023-03-23T16:42:49;15.30;99.90
37460;DHT22;23318;50.966;5.284;2023-03-23T16:45:16;15.50;99.90
37460;DHT22;23318;50.966;5.284;2023-03-23T16:47:42;15.70;99.90
37460;DHT22;23318;50.966;5.284;2023-03-23T16:50:10;16.50;99.90
37460;DHT22;23318;50.966;5.284;2023-03-23T16:52:38;17.20;99.90
37460;DHT22;23318;50.966;5.284;2023-03-23T16:55:04;16.80;99.90
37460;DHT22;23318;50.966;5.284;2023-03-23T16:57:32;16.80;99.90
37460;DHT22;23318;50.966;5.284;2023-03-23T16:59:59;16.60;99.90
37460;DHT22;23318;50.966;5.284;2023-03-23T17:02:25;16.30;99.90
37460;DHT22;23318;50.966;5.284;2023-03-23T17:04:51;15.90;99.90
37460;DHT22;23318;50.966;5.284;2023-03-23T17:07:17;15.60;99.90
37460;DHT22;23318;50.966;5.284;2023-03-23T17:09:43;15.30;99.90
37460;DHT22;23318;50.966;5.284;2023-03-23T17:12:09;15.20;99.90
37460;DHT22;23318;50.966;5.284;2023-03-23T17:14:35;15.20;99.90
37460;DHT22;23318;50.966;5.284;2023-03-23T17:17:01;15.30;99.90
37460;DHT22;23318;50.966;5.284;2023-03-23T17:19:27;15.10;99.90
37460;DHT22;23318;50.966;5.284;2023-03-23T17:21:52;15.00;99.90
37460;DHT22;23318;50.966;5.284;2023-03-23T17:24:18;15.10;99.90
37460;DHT22;23318;50.966;5.284;2023-03-23T17:26:44;15.00;99.90
37460;DHT22;23318;50.966;5.284;2023-03-23T17:29:10;15.00;99.90
37460;DHT22;23318;50.966;5.284;2023-03-23T17:31:36;15.00;99.90
37460;DHT22;23318;50.966;5.284;2023-03-23T17:34:01;14.90;99.90
37460;DHT22;23318;50.966;5.284;2023-03-23T17:36:27;14.90;99.90
37460;DHT22;23318;50.966;5.284;2023-03-23T17:38:53;14.90;99.90
37460;DHT22;23318;50.966;5.284;2023-03-23T17:41:19;14.70;99.90
37460;DHT22;23318;50.966;5.284;2023-03-23T17:43:47;14.80;99.90
37460;DHT22;23318;50.966;5.284;2023-03-23T17:46:13;14.80;99.90